createdAt,value
2017-11-03T00:00:22.482Z,45.70
2017-11-03T00:01:24.045Z,54.70
2017-11-03T00:02:23.134Z,56.00
2017-11-03T00:03:22.516Z,59.70
2017-11-03T00:04:23.163Z,63.60
2017-11-03T00:05:23.455Z,62.80
2017-11-03T00:06:22.977Z,73.00
2017-11-03T00:07:24.045Z,71.00
2017-11-03T00:08:23.327Z,64.30
2017-11-03T00:09:23.221Z,59.40
2017-11-03T00:10:23.500Z,62.10
2017-11-03T00:11:22.731Z,76.60
2017-11-03T00:12:22.645Z,78.50
2017-11-03T00:13:22.888Z,77.20
2017-11-03T00:14:23.620Z,72.00
2017-11-03T00:15:22.755Z,62.20
2017-11-03T00:16:22.617Z,64.60
2017-11-03T00:17:22.607Z,65.80
2017-11-03T00:18:22.499Z,65.10
2017-11-03T00:19:22.883Z,61.30
2017-11-03T00:20:23.134Z,64.80
2017-11-03T00:21:23.151Z,90.30
2017-11-03T00:22:23.144Z,91.10
2017-11-03T00:23:23.389Z,98.10
2017-11-03T00:24:22.394Z,104.10
2017-11-03T00:25:23.880Z,77.70
2017-11-03T00:26:22.991Z,82.10
2017-11-03T00:27:23.399Z,83.30
2017-11-03T00:28:22.833Z,80.30
2017-11-03T00:29:23.106Z,66.90
2017-11-03T00:30:23.320Z,75.80
2017-11-03T00:31:23.344Z,85.90
2017-11-03T00:32:22.689Z,75.10
2017-11-03T00:33:22.938Z,78.10
2017-11-03T00:34:23.218Z,80.70
2017-11-03T00:35:22.412Z,98.50
2017-11-03T00:36:23.139Z,84.60
2017-11-03T00:37:23.307Z,91.80
2017-11-03T00:38:23.733Z,91.30
2017-11-03T00:39:23.841Z,100.40
2017-11-03T00:40:23.069Z,83.30
2017-11-03T00:41:23.776Z,101.20
2017-11-03T00:42:23.272Z,89.90
2017-11-03T00:43:23.743Z,92.80
2017-11-03T00:44:22.901Z,100.40
2017-11-03T00:45:23.115Z,100.50
2017-11-03T00:46:23.975Z,110.40
2017-11-03T00:47:22.719Z,113.60
2017-11-03T00:48:22.537Z,107.90
2017-11-03T00:49:22.686Z,114.80
2017-11-03T00:50:22.942Z,111.20
2017-11-03T00:51:23.547Z,108.10
2017-11-03T00:52:22.840Z,105.60
2017-11-03T00:53:23.269Z,106.50
2017-11-03T00:54:23.226Z,100.20
2017-11-03T00:55:23.147Z,101.30
2017-11-03T00:56:23.781Z,106.80
2017-11-03T00:57:23.021Z,94.70
2017-11-03T00:58:22.883Z,98.10
2017-11-03T00:59:22.801Z,98.60
2017-11-03T01:00:22.997Z,103.50
2017-11-03T01:01:23.484Z,106.30
2017-11-03T01:02:22.839Z,129.30
2017-11-03T01:03:23.133Z,111.10
2017-11-03T01:04:23.054Z,108.90
2017-11-03T01:05:22.752Z,96.50
2017-11-03T01:06:23.043Z,102.00
2017-11-03T01:07:23.594Z,95.30
2017-11-03T01:08:23.832Z,101.00
2017-11-03T01:09:22.661Z,93.90
2017-11-03T01:10:22.972Z,100.70
2017-11-03T01:11:22.992Z,99.40
2017-11-03T01:12:23.514Z,93.50
2017-11-03T01:13:23.192Z,95.70
2017-11-03T01:14:23.368Z,91.50
2017-11-03T01:15:22.722Z,94.70
2017-11-03T01:16:22.376Z,92.00
2017-11-03T01:17:23.691Z,85.30
2017-11-03T01:18:22.707Z,94.90
2017-11-03T01:19:23.020Z,109.70
2017-11-03T01:20:23.194Z,95.80
2017-11-03T01:21:23.077Z,113.60
2017-11-03T01:22:23.247Z,101.10
2017-11-03T01:23:23.433Z,96.90
2017-11-03T01:24:23.008Z,96.40
2017-11-03T01:25:23.207Z,98.40
2017-11-03T01:26:23.473Z,98.30
2017-11-03T01:27:22.738Z,93.90
2017-11-03T01:28:22.950Z,91.60
2017-11-03T01:29:23.267Z,94.70
2017-11-03T01:30:23.001Z,87.00
2017-11-03T01:31:22.843Z,93.60
2017-11-03T01:32:22.762Z,91.00
2017-11-03T01:33:22.979Z,97.60
2017-11-03T01:34:23.694Z,89.40
2017-11-03T01:35:22.559Z,94.70
2017-11-03T01:36:22.335Z,88.80
2017-11-03T01:37:23.264Z,88.60
2017-11-03T01:38:23.235Z,88.40
2017-11-03T01:39:23.493Z,80.50
2017-11-03T01:40:22.729Z,81.80
2017-11-03T01:41:23.405Z,74.40
2017-11-03T01:42:23.738Z,85.40
2017-11-03T01:43:22.613Z,82.50
2017-11-03T01:44:22.760Z,106.10
2017-11-03T01:45:22.992Z,100.70
2017-11-03T01:46:23.159Z,81.00
2017-11-03T01:47:22.900Z,108.60
2017-11-03T01:48:23.276Z,102.60
2017-11-03T01:49:23.017Z,79.90
2017-11-03T01:50:23.641Z,89.40
2017-11-03T01:51:22.564Z,91.40
2017-11-03T01:52:22.475Z,88.60
2017-11-03T01:53:22.670Z,89.70
2017-11-03T01:54:22.606Z,86.00
2017-11-03T01:55:22.858Z,97.10
2017-11-03T01:56:23.095Z,81.70
2017-11-03T01:57:23.602Z,84.10
2017-11-03T01:58:22.645Z,102.20
2017-11-03T01:59:23.227Z,90.00
2017-11-03T02:00:23.355Z,91.20
2017-11-03T02:01:23.627Z,87.30
2017-11-03T02:02:22.581Z,81.20
2017-11-03T02:03:22.874Z,82.30
2017-11-03T02:04:23.015Z,94.10
2017-11-03T02:05:23.258Z,80.90
2017-11-03T02:06:23.510Z,92.10
2017-11-03T02:07:22.928Z,100.40
2017-11-03T02:08:23.166Z,89.00
2017-11-03T02:09:23.556Z,93.20
2017-11-03T02:10:22.370Z,93.80
2017-11-03T02:11:23.955Z,85.10
2017-11-03T02:12:23.382Z,77.70
2017-11-03T02:13:23.655Z,86.30
2017-11-03T02:14:23.106Z,93.50
2017-11-03T02:15:23.126Z,78.80
2017-11-03T02:16:23.229Z,91.40
2017-11-03T02:17:23.088Z,95.70
2017-11-03T02:18:23.122Z,92.20
2017-11-03T02:19:23.135Z,86.10
2017-11-03T02:20:23.037Z,82.80
2017-11-03T02:21:23.709Z,81.80
2017-11-03T02:22:22.948Z,79.00
2017-11-03T02:23:23.410Z,84.70
2017-11-03T02:24:22.441Z,83.00
2017-11-03T02:25:23.807Z,70.00
2017-11-03T02:26:23.105Z,80.20
2017-11-03T02:27:23.118Z,80.30
2017-11-03T02:28:22.953Z,95.90
2017-11-03T02:29:23.232Z,76.80
2017-11-03T02:30:23.260Z,78.70
2017-11-03T02:31:23.961Z,93.50
2017-11-03T02:32:23.093Z,74.50
2017-11-03T02:33:23.418Z,77.50
2017-11-03T02:34:23.418Z,79.80
2017-11-03T02:35:23.717Z,84.70
2017-11-03T02:36:22.927Z,92.20
2017-11-03T02:37:23.235Z,81.80
2017-11-03T02:38:23.487Z,72.60
2017-11-03T02:39:22.970Z,79.00
2017-11-03T02:40:23.041Z,87.30
2017-11-03T02:41:23.190Z,87.70
2017-11-03T02:42:23.903Z,94.30
2017-11-03T02:43:22.763Z,91.80
2017-11-03T02:44:22.306Z,87.00
2017-11-03T02:45:23.577Z,76.30
2017-11-03T02:46:22.870Z,85.80
2017-11-03T02:47:23.572Z,86.10
2017-11-03T02:48:22.957Z,73.40
2017-11-03T02:49:23.000Z,82.30
2017-11-03T02:50:23.464Z,76.70
2017-11-03T02:51:22.323Z,78.70
2017-11-03T02:52:23.668Z,72.80
2017-11-03T02:53:22.824Z,88.60
2017-11-03T02:54:22.756Z,78.00
2017-11-03T02:55:23.104Z,86.40
2017-11-03T02:56:25.306Z,64.80
2017-11-03T02:57:23.947Z,77.90
2017-11-03T02:58:22.870Z,67.50
2017-11-03T02:59:22.694Z,86.00
2017-11-03T03:00:22.880Z,80.30
2017-11-03T03:01:23.201Z,74.10
2017-11-03T03:02:23.423Z,68.40
2017-11-03T03:03:23.683Z,80.10
2017-11-03T03:04:22.987Z,81.20
2017-11-03T03:05:22.791Z,67.30
2017-11-03T03:06:23.128Z,71.60
2017-11-03T03:07:23.638Z,68.90
2017-11-03T03:08:22.905Z,70.40
2017-11-03T03:09:22.701Z,70.90
2017-11-03T03:10:22.665Z,66.20
2017-11-03T03:11:22.546Z,63.00
2017-11-03T03:12:22.761Z,66.30
2017-11-03T03:13:23.374Z,74.50
2017-11-03T03:14:23.360Z,80.90
2017-11-03T03:15:23.230Z,60.20
2017-11-03T03:16:23.049Z,67.70
2017-11-03T03:17:23.219Z,70.00
2017-11-03T03:18:24.708Z,61.90
2017-11-03T03:19:22.604Z,61.60
2017-11-03T03:20:22.405Z,68.50
2017-11-03T03:21:22.774Z,82.20
2017-11-03T03:22:23.021Z,75.70
2017-11-03T03:23:23.746Z,63.40
2017-11-03T03:24:22.940Z,65.00
2017-11-03T03:25:22.848Z,75.00
2017-11-03T03:27:17.528Z,67.30
2017-11-03T03:28:17.561Z,67.50
2017-11-03T03:29:18.095Z,66.00
2017-11-03T03:30:18.106Z,63.70
2017-11-03T03:31:18.119Z,62.80
2017-11-03T03:32:18.219Z,59.20
2017-11-03T03:33:18.440Z,67.00
2017-11-03T03:34:17.363Z,66.00
2017-11-03T03:35:18.684Z,64.70
2017-11-03T03:36:17.886Z,68.70
2017-11-03T03:37:17.695Z,66.30
2017-11-03T03:38:18.086Z,62.90
2017-11-03T03:39:17.906Z,69.30
2017-11-03T03:40:18.180Z,70.60
2017-11-03T03:41:18.309Z,67.40
2017-11-03T03:42:18.579Z,64.50
2017-11-03T03:43:17.443Z,59.60
2017-11-03T03:44:17.687Z,59.20
2017-11-03T03:45:17.582Z,60.40
2017-11-03T03:46:18.101Z,64.10
2017-11-03T03:47:17.942Z,68.10
2017-11-03T03:48:18.333Z,64.70
2017-11-03T03:49:17.563Z,73.60
2017-11-03T03:50:17.439Z,78.70
2017-11-03T03:51:17.637Z,63.70
2017-11-03T03:52:17.795Z,67.50
2017-11-03T03:53:18.055Z,68.30
2017-11-03T03:54:17.948Z,81.10
2017-11-03T03:55:18.088Z,74.10
2017-11-03T03:56:18.300Z,78.50
2017-11-03T03:57:18.849Z,83.80
2017-11-03T03:58:18.126Z,67.40
2017-11-03T03:59:18.098Z,74.30
2017-11-03T04:00:17.894Z,62.30
2017-11-03T04:01:18.284Z,70.80
2017-11-03T04:02:17.847Z,71.70
2017-11-03T04:03:18.046Z,69.80
2017-11-03T04:04:17.922Z,61.40
2017-11-03T04:05:18.230Z,59.80
2017-11-03T04:06:18.397Z,80.60
2017-11-03T04:07:17.601Z,73.40
2017-11-03T04:08:17.533Z,69.00
2017-11-03T04:09:21.010Z,82.50
2017-11-03T04:10:17.834Z,68.90
2017-11-03T04:11:17.954Z,70.80
2017-11-03T04:12:18.278Z,67.50
2017-11-03T04:13:18.649Z,74.30
2017-11-03T04:14:18.625Z,63.60
2017-11-03T04:15:17.478Z,63.00
2017-11-03T04:16:17.378Z,89.40
2017-11-03T04:17:18.133Z,63.50
2017-11-03T04:18:17.987Z,59.10
2017-11-03T04:19:18.202Z,67.80
2017-11-03T04:20:17.941Z,61.30
2017-11-03T04:21:18.207Z,88.70
2017-11-03T04:22:17.949Z,91.40
2017-11-03T04:23:17.671Z,79.60
2017-11-03T04:24:17.803Z,71.80
2017-11-03T04:25:17.992Z,70.50
2017-11-03T04:26:17.827Z,73.30
2017-11-03T04:27:18.035Z,80.70
2017-11-03T04:28:17.942Z,71.50
2017-11-03T04:29:17.570Z,73.00
2017-11-03T04:30:17.385Z,75.20
2017-11-03T04:31:18.535Z,66.80
2017-11-03T04:32:17.892Z,81.20
2017-11-03T04:33:17.691Z,81.90
2017-11-03T04:34:17.832Z,86.90
2017-11-03T04:35:18.534Z,88.60
2017-11-03T04:36:17.712Z,83.00
2017-11-03T04:37:18.301Z,76.20
2017-11-03T04:38:18.408Z,89.80
2017-11-03T04:39:17.330Z,82.50
2017-11-03T04:40:18.179Z,71.00
2017-11-03T04:41:18.234Z,74.40
2017-11-03T04:42:18.680Z,73.50
2017-11-03T04:43:17.553Z,83.10
2017-11-03T04:44:17.337Z,75.90
2017-11-03T04:45:18.074Z,76.60
2017-11-03T04:46:18.030Z,84.70
2017-11-03T04:47:18.745Z,92.80
2017-11-03T04:48:17.951Z,98.80
2017-11-03T04:49:18.149Z,92.20
2017-11-03T04:50:17.854Z,99.00
2017-11-03T04:51:18.053Z,89.60
2017-11-03T04:52:18.720Z,79.90
2017-11-03T04:53:17.440Z,91.60
2017-11-03T04:54:17.673Z,89.30
2017-11-03T04:55:17.618Z,73.90
2017-11-03T04:56:17.433Z,78.50
2017-11-03T04:57:18.828Z,83.90
2017-11-03T04:58:17.606Z,94.30
2017-11-03T04:59:17.802Z,86.50
2017-11-03T05:00:17.714Z,89.00
2017-11-03T05:01:18.017Z,84.40
2017-11-03T05:02:18.436Z,89.20
2017-11-03T05:03:18.385Z,82.90
2017-11-03T05:04:17.550Z,95.70
2017-11-03T05:05:17.699Z,84.90
2017-11-03T05:06:34.839Z,81.10
2017-11-03T05:07:35.051Z,68.50
2017-11-03T05:08:35.359Z,81.90
2017-11-03T05:09:35.474Z,83.40
2017-11-03T05:10:35.702Z,85.90
2017-11-03T05:11:34.887Z,77.80
2017-11-03T05:12:35.509Z,82.30
2017-11-03T05:13:35.808Z,72.30
2017-11-03T05:14:35.038Z,90.40
2017-11-03T05:15:35.315Z,91.40
2017-11-03T05:16:35.058Z,87.70
2017-11-03T05:17:35.026Z,96.70
2017-11-03T05:18:35.126Z,81.10
2017-11-03T05:19:35.059Z,93.70
2017-11-03T05:20:35.205Z,80.80
2017-11-03T05:21:35.589Z,89.10
2017-11-03T05:22:51.299Z,82.30
2017-11-03T05:23:51.121Z,77.70
2017-11-03T05:24:50.964Z,78.10
2017-11-03T05:25:50.724Z,74.00
2017-11-03T05:26:50.451Z,78.50
2017-11-03T05:27:51.655Z,79.60
2017-11-03T05:28:51.441Z,84.30
2017-11-03T05:29:51.294Z,85.90
2017-11-03T05:30:51.679Z,71.40
2017-11-03T05:31:51.474Z,87.80
2017-11-03T05:32:51.860Z,80.70
2017-11-03T05:33:51.262Z,68.90
2017-11-03T05:34:51.106Z,79.40
2017-11-03T05:35:50.896Z,73.20
2017-11-03T05:36:51.133Z,71.40
2017-11-03T05:37:50.878Z,77.60
2017-11-03T05:38:51.611Z,76.60
2017-11-03T05:39:51.055Z,85.20
2017-11-03T05:40:50.883Z,72.70
2017-11-03T05:41:51.099Z,70.90
2017-11-03T05:42:51.013Z,75.80
2017-11-03T05:43:51.333Z,75.40
2017-11-03T05:44:51.526Z,77.00
2017-11-03T05:45:51.752Z,87.50
2017-11-03T05:46:51.854Z,86.70
2017-11-03T05:47:51.113Z,80.20
2017-11-03T05:48:51.743Z,79.10
2017-11-03T05:49:51.440Z,87.40
2017-11-03T05:50:51.232Z,81.00
2017-11-03T05:51:51.144Z,77.10
2017-11-03T05:52:51.314Z,84.80
2017-11-03T05:53:51.862Z,75.80
2017-11-03T05:54:51.140Z,80.60
2017-11-03T05:55:51.371Z,76.40
2017-11-03T05:56:51.368Z,73.20
2017-11-03T05:57:51.682Z,67.80
2017-11-03T05:58:52.614Z,63.20
2017-11-03T05:59:51.759Z,81.90
2017-11-03T06:00:50.936Z,79.40
2017-11-03T06:01:50.735Z,78.30
2017-11-03T06:02:50.996Z,70.80
2017-11-03T06:03:51.077Z,79.00
2017-11-03T06:04:51.486Z,77.50
2017-11-03T06:05:51.366Z,81.50
2017-11-03T06:06:51.741Z,86.90
2017-11-03T06:07:50.733Z,89.30
2017-11-03T06:08:50.714Z,93.10
2017-11-03T06:09:50.479Z,94.80
2017-11-03T06:10:51.740Z,86.30
2017-11-03T06:11:51.882Z,74.90
2017-11-03T06:12:50.692Z,68.70
2017-11-03T06:13:50.587Z,83.10
2017-11-03T06:14:51.337Z,91.90
2017-11-03T06:15:51.575Z,80.10
2017-11-03T06:16:51.662Z,81.70
2017-11-03T06:17:51.815Z,88.10
2017-11-03T06:18:50.716Z,72.80
2017-11-03T06:19:51.916Z,77.70
2017-11-03T06:20:51.136Z,67.30
2017-11-03T06:21:51.502Z,86.30
2017-11-03T06:22:52.296Z,67.20
2017-11-03T06:23:51.194Z,67.50
2017-11-03T06:24:51.440Z,68.80
2017-11-03T06:25:51.175Z,66.60
2017-11-03T06:26:51.474Z,75.90
2017-11-03T06:27:51.897Z,60.60
2017-11-03T06:28:51.956Z,55.70
2017-11-03T06:29:50.766Z,63.50
2017-11-03T06:31:58.332Z,65.10
2017-11-03T06:32:58.115Z,61.30
2017-11-03T06:33:58.791Z,55.60
2017-11-03T06:35:11.902Z,56.60
2017-11-03T06:36:12.392Z,56.30
2017-11-03T06:37:11.404Z,55.10
2017-11-03T06:38:11.325Z,56.60
2017-11-03T06:39:12.507Z,54.90
2017-11-03T06:40:11.310Z,58.10
2017-11-03T06:41:12.634Z,52.10
2017-11-03T06:42:11.716Z,49.70
2017-11-03T06:43:11.918Z,57.20
2017-11-03T06:44:12.248Z,52.60
2017-11-03T06:45:13.055Z,52.50
2017-11-03T06:46:12.071Z,52.00
2017-11-03T06:47:12.510Z,47.10
2017-11-03T06:48:11.710Z,49.20
2017-11-03T06:49:11.509Z,48.20
2017-11-03T06:50:11.800Z,49.40
2017-11-03T06:51:12.558Z,47.10
2017-11-03T06:52:11.465Z,46.80
2017-11-03T06:53:12.841Z,44.80
2017-11-03T06:54:12.677Z,45.70
2017-11-03T06:55:12.070Z,47.20
2017-11-03T06:56:12.404Z,44.30
2017-11-03T06:57:12.357Z,45.10
2017-11-03T06:58:12.716Z,46.80
2017-11-03T06:59:12.132Z,46.50
2017-11-03T07:00:12.129Z,45.70
2017-11-03T07:01:12.443Z,45.10
2017-11-03T07:02:12.233Z,46.00
2017-11-03T07:03:13.174Z,46.30
2017-11-03T07:04:11.946Z,45.10
2017-11-03T07:05:12.405Z,45.40
2017-11-03T07:06:13.113Z,44.80
2017-11-03T07:07:12.559Z,46.20
2017-11-03T07:08:11.835Z,45.00
2017-11-03T07:09:12.324Z,44.90
2017-11-03T07:10:12.676Z,46.20
2017-11-03T07:11:11.958Z,46.30
2017-11-03T07:12:12.173Z,43.90
2017-11-03T07:13:12.135Z,46.00
2017-11-03T07:14:12.517Z,45.70
2017-11-03T07:15:12.569Z,46.30
2017-11-03T07:16:12.524Z,46.70
2017-11-03T07:17:11.935Z,48.50
2017-11-03T07:18:12.747Z,46.20
2017-11-03T07:19:12.207Z,47.10
2017-11-03T07:20:12.133Z,46.10
2017-11-03T07:21:12.057Z,46.40
2017-11-03T07:22:12.446Z,45.30
2017-11-03T07:23:13.192Z,46.30
2017-11-03T07:24:12.095Z,46.10
2017-11-03T07:25:11.888Z,47.50
2017-11-03T07:26:12.145Z,49.40
2017-11-03T07:27:12.132Z,46.00
2017-11-03T07:28:12.937Z,47.70
2017-11-03T07:29:11.794Z,48.50
2017-11-03T07:30:12.394Z,48.00
2017-11-03T07:31:12.673Z,43.40
2017-11-03T07:32:12.011Z,48.50
2017-11-03T07:33:12.648Z,49.20
2017-11-03T07:34:12.112Z,46.80
2017-11-03T07:35:12.581Z,48.20
2017-11-03T07:36:11.967Z,45.90
2017-11-03T07:37:11.877Z,46.40
2017-11-03T07:38:11.917Z,47.00
2017-11-03T07:39:12.631Z,48.10
2017-11-03T07:40:11.993Z,47.20
2017-11-03T07:41:12.239Z,47.00
2017-11-03T07:42:12.259Z,45.90
2017-11-03T07:43:12.720Z,46.30
2017-11-03T07:44:11.927Z,45.90
2017-11-03T07:45:12.164Z,46.60
2017-11-03T07:46:12.554Z,47.70
2017-11-03T07:47:11.530Z,47.30
2017-11-03T07:48:11.901Z,48.30
2017-11-03T07:49:12.514Z,45.60
2017-11-03T07:50:11.865Z,45.90
2017-11-03T07:51:12.653Z,46.80
2017-11-03T07:52:12.212Z,46.90
2017-11-03T07:53:12.645Z,47.20
2017-11-03T07:54:11.934Z,44.10
2017-11-03T07:55:12.156Z,46.30
2017-11-03T07:56:12.842Z,46.90
2017-11-03T07:57:12.568Z,47.70
2017-11-03T07:58:11.969Z,47.90
2017-11-03T07:59:12.326Z,47.20
2017-11-03T08:00:12.633Z,46.50
2017-11-03T08:01:12.529Z,47.90
2017-11-03T08:02:11.537Z,48.90
2017-11-03T08:03:11.447Z,46.60
2017-11-03T08:04:12.403Z,48.50
2017-11-03T08:05:11.677Z,49.70
2017-11-03T08:06:11.969Z,48.70
2017-11-03T08:07:12.639Z,47.00
2017-11-03T08:08:11.814Z,50.50
2017-11-03T08:09:12.138Z,50.90
2017-11-03T08:10:12.350Z,51.60
2017-11-03T08:11:12.277Z,50.10
2017-11-03T08:12:12.918Z,49.10
2017-11-03T08:13:12.102Z,49.00
2017-11-03T08:14:12.411Z,43.70
2017-11-03T08:15:13.084Z,45.90
2017-11-03T08:16:11.400Z,47.10
2017-11-03T08:17:13.130Z,43.90
2017-11-03T08:18:12.705Z,46.80
2017-11-03T08:19:12.309Z,45.50
2017-11-03T08:20:11.893Z,44.30
2017-11-03T08:21:12.064Z,44.10
2017-11-03T08:22:12.839Z,45.60
2017-11-03T08:23:12.203Z,48.40
2017-11-03T08:24:13.039Z,50.80
2017-11-03T08:25:12.226Z,47.10
2017-11-03T08:26:12.276Z,48.20
2017-11-03T08:27:13.118Z,45.90
2017-11-03T08:28:12.515Z,45.00
2017-11-03T08:29:11.432Z,43.90
2017-11-03T08:30:12.764Z,43.50
2017-11-03T08:31:11.757Z,43.80
2017-11-03T08:32:12.168Z,45.90
2017-11-03T08:33:12.559Z,45.30
2017-11-03T08:34:12.492Z,44.20
2017-11-03T08:35:12.544Z,44.90
2017-11-03T08:36:11.579Z,43.50
2017-11-03T08:37:11.509Z,43.00
2017-11-03T08:38:12.581Z,45.10
2017-11-03T08:39:12.248Z,43.40
2017-11-03T08:40:12.564Z,43.00
2017-11-03T08:41:12.174Z,43.40
2017-11-03T08:42:12.366Z,42.00
2017-11-03T08:43:12.899Z,42.30
2017-11-03T08:44:11.912Z,42.10
2017-11-03T08:45:12.123Z,42.40
2017-11-03T08:46:12.158Z,43.10
2017-11-03T08:47:12.217Z,43.00
2017-11-03T08:48:11.558Z,41.10
2017-11-03T08:49:12.027Z,40.60
2017-11-03T08:50:12.043Z,40.50
2017-11-03T08:51:12.012Z,39.30
2017-11-03T08:52:12.021Z,40.60
2017-11-03T08:53:12.340Z,40.00
2017-11-03T08:54:12.024Z,39.20
2017-11-03T08:55:12.617Z,42.60
2017-11-03T08:56:11.556Z,40.60
2017-11-03T08:57:11.952Z,43.30
2017-11-03T08:58:12.354Z,42.20
2017-11-03T08:59:12.338Z,41.10
2017-11-03T09:00:13.113Z,40.30
2017-11-03T09:01:11.623Z,40.70
2017-11-03T09:02:12.008Z,40.70
2017-11-03T09:03:12.034Z,41.80
2017-11-03T09:04:11.942Z,40.90
2017-11-03T09:05:12.179Z,41.00
2017-11-03T09:06:12.663Z,39.00
2017-11-03T09:07:12.021Z,38.50
2017-11-03T09:08:11.974Z,40.90
2017-11-03T09:09:11.922Z,43.60
2017-11-03T09:10:12.845Z,41.40
2017-11-03T09:11:11.901Z,39.60
2017-11-03T09:12:11.794Z,39.60
2017-11-03T09:13:12.077Z,39.70
2017-11-03T09:14:11.952Z,38.50
2017-11-03T09:15:12.590Z,39.10
2017-11-03T09:16:11.438Z,38.30
2017-11-03T09:17:11.474Z,40.30
2017-11-03T09:18:12.012Z,38.70
2017-11-03T09:19:12.176Z,38.30
2017-11-03T09:20:12.945Z,36.90
2017-11-03T09:21:12.137Z,36.60
2017-11-03T09:22:12.025Z,37.60
2017-11-03T09:23:12.221Z,37.20
2017-11-03T09:24:12.158Z,38.80
2017-11-03T09:25:12.456Z,38.00
2017-11-03T09:26:12.368Z,40.30
2017-11-03T09:27:12.023Z,40.00
2017-11-03T09:28:12.090Z,40.50
2017-11-03T09:29:12.018Z,41.00
2017-11-03T09:30:13.247Z,41.80
2017-11-03T09:31:12.203Z,41.40
2017-11-03T09:32:12.676Z,43.70
2017-11-03T09:33:11.879Z,41.10
2017-11-03T09:34:12.171Z,39.80
2017-11-03T09:35:12.464Z,40.40
2017-11-03T09:36:12.566Z,40.30
2017-11-03T09:37:12.052Z,41.20
2017-11-03T09:38:11.931Z,39.00
2017-11-03T09:39:12.950Z,40.40
2017-11-03T09:40:11.795Z,43.00
2017-11-03T09:41:12.555Z,44.10
2017-11-03T09:42:11.531Z,41.30
2017-11-03T09:43:12.015Z,40.00
2017-11-03T09:44:12.054Z,38.40
2017-11-03T09:45:13.095Z,39.60
2017-11-03T09:46:12.299Z,36.80
2017-11-03T09:47:12.657Z,37.90
2017-11-03T09:48:11.919Z,40.00
2017-11-03T09:49:12.259Z,42.40
2017-11-03T09:50:12.827Z,40.90
2017-11-03T09:51:13.292Z,43.70
2017-11-03T09:52:12.319Z,43.90
2017-11-03T09:53:12.272Z,43.70
2017-11-03T09:54:12.320Z,45.80
2017-11-03T09:55:12.626Z,46.40
2017-11-03T09:56:11.542Z,46.30
2017-11-03T09:57:12.197Z,45.90
2017-11-03T09:58:12.074Z,46.80
2017-11-03T09:59:11.726Z,48.30
2017-11-03T10:00:11.715Z,48.40
2017-11-03T10:01:11.675Z,49.00
2017-11-03T10:02:11.762Z,49.50
2017-11-03T10:03:12.594Z,49.10
2017-11-03T10:04:11.636Z,49.10
2017-11-03T10:05:11.670Z,50.90
2017-11-03T10:06:11.724Z,54.30
2017-11-03T10:07:12.224Z,55.80
2017-11-03T10:08:11.759Z,57.40
2017-11-03T10:09:12.620Z,58.30
2017-11-03T10:10:12.137Z,61.40
2017-11-03T10:11:12.659Z,64.40
2017-11-03T10:12:12.193Z,68.20
2017-11-03T10:13:12.712Z,68.60
2017-11-03T10:14:12.644Z,74.90
2017-11-03T10:15:11.741Z,77.50
2017-11-03T10:16:12.049Z,80.50
2017-11-03T10:17:12.606Z,77.20
2017-11-03T10:18:11.752Z,80.70
2017-11-03T10:19:12.778Z,84.00
2017-11-03T10:20:11.914Z,85.00
2017-11-03T10:21:12.014Z,93.60
2017-11-03T10:22:12.212Z,91.00
2017-11-03T10:23:12.531Z,91.90
2017-11-03T10:24:11.896Z,94.10
2017-11-03T10:25:12.283Z,94.50
2017-11-03T10:26:12.552Z,96.60
2017-11-03T10:27:11.638Z,102.30
2017-11-03T10:28:11.737Z,100.30
2017-11-03T10:29:11.700Z,97.70
2017-11-03T10:30:12.135Z,100.60
2017-11-03T10:31:12.684Z,101.90
2017-11-03T10:32:12.132Z,99.70
2017-11-03T10:33:12.868Z,101.00
2017-11-03T10:34:12.334Z,104.30
2017-11-03T10:35:12.380Z,103.00
2017-11-03T10:36:13.245Z,100.60
2017-11-03T10:37:12.572Z,101.60
2017-11-03T10:38:12.002Z,101.00
2017-11-03T10:39:12.533Z,103.60
2017-11-03T10:40:12.098Z,104.80
2017-11-03T10:41:12.899Z,101.80
2017-11-03T10:42:12.564Z,104.20
2017-11-03T10:43:12.055Z,104.50
2017-11-03T10:44:11.721Z,102.30
2017-11-03T10:45:12.710Z,102.40
2017-11-03T10:46:12.263Z,103.20
2017-11-03T10:47:12.366Z,102.80
2017-11-03T10:48:12.962Z,99.60
2017-11-03T10:49:12.076Z,93.70
2017-11-03T10:50:12.115Z,97.70
2017-11-03T10:51:12.666Z,98.20
2017-11-03T10:52:11.844Z,101.60
2017-11-03T10:53:11.884Z,97.90
2017-11-03T10:54:12.608Z,93.70
2017-11-03T10:55:11.956Z,94.10
2017-11-03T10:56:12.539Z,96.30
2017-11-03T10:57:12.002Z,95.20
2017-11-03T10:58:12.032Z,92.20
2017-11-03T10:59:12.212Z,93.10
2017-11-03T11:00:12.365Z,92.80
2017-11-03T11:01:12.786Z,93.50
2017-11-03T11:02:12.198Z,92.50
2017-11-03T11:03:12.263Z,89.50
2017-11-03T11:04:12.411Z,94.90
2017-11-03T11:05:13.029Z,94.50
2017-11-03T11:06:12.531Z,96.40
2017-11-03T11:07:12.215Z,95.50
2017-11-03T11:08:12.346Z,94.50
2017-11-03T11:09:12.296Z,93.60
2017-11-03T11:10:12.798Z,97.30
2017-11-03T11:11:12.463Z,98.20
2017-11-03T11:12:11.958Z,99.70
2017-11-03T11:13:11.927Z,101.40
2017-11-03T11:14:11.951Z,101.60
2017-11-03T11:15:12.662Z,96.60
2017-11-03T11:16:12.922Z,99.10
2017-11-03T11:17:12.325Z,100.20
2017-11-03T11:18:13.797Z,103.20
2017-11-03T11:19:11.993Z,100.50
2017-11-03T11:20:12.422Z,105.10
2017-11-03T11:21:12.132Z,102.60
2017-11-03T11:22:12.206Z,101.50
2017-11-03T11:23:12.567Z,98.30
2017-11-03T11:24:12.067Z,97.10
2017-11-03T11:25:12.388Z,102.00
2017-11-03T11:26:12.714Z,100.70
2017-11-03T11:27:11.954Z,105.80
2017-11-03T11:28:12.512Z,106.40
2017-11-03T11:29:11.569Z,104.10
2017-11-03T11:30:11.469Z,103.10
2017-11-03T11:31:11.980Z,105.30
2017-11-03T11:32:12.421Z,106.30
2017-11-03T11:33:12.886Z,105.30
2017-11-03T11:34:13.000Z,109.80
2017-11-03T11:35:12.475Z,108.30
2017-11-03T11:36:12.783Z,106.70
2017-11-03T11:37:12.441Z,107.30
2017-11-03T11:38:13.261Z,104.60
2017-11-03T11:38:50.900Z,104.20
2017-11-03T11:39:51.567Z,106.30
2017-11-03T11:40:50.834Z,104.40
2017-11-03T11:41:50.961Z,104.70
2017-11-03T11:42:50.928Z,103.60
2017-11-03T11:43:51.586Z,104.90
2017-11-03T11:44:51.186Z,105.50
2017-11-03T11:45:51.235Z,105.80
2017-11-03T11:46:51.236Z,104.90
2017-11-03T11:47:52.282Z,103.30
2017-11-03T11:48:50.957Z,100.40
2017-11-03T11:49:51.840Z,101.60
2017-11-03T11:50:50.936Z,101.80
2017-11-03T11:51:50.555Z,104.30
2017-11-03T11:52:51.099Z,105.70
2017-11-03T11:53:51.183Z,102.60
2017-11-03T11:54:51.965Z,104.80
2017-11-03T11:55:51.108Z,106.60
2017-11-03T11:56:51.346Z,101.20
2017-11-03T11:57:50.780Z,99.00
2017-11-03T11:58:50.743Z,99.70
2017-11-03T11:59:51.152Z,98.20
2017-11-03T12:00:52.039Z,98.70
2017-11-03T12:01:51.227Z,100.90
2017-11-03T12:02:51.779Z,101.40
2017-11-03T12:03:51.450Z,99.30
2017-11-03T12:04:51.066Z,95.40
2017-11-03T12:05:51.540Z,90.40
2017-11-03T12:06:51.133Z,94.90
2017-11-03T12:07:50.960Z,95.50
2017-11-03T12:08:51.538Z,95.80
2017-11-03T12:09:51.438Z,94.20
2017-11-03T12:10:51.059Z,92.80
2017-11-03T12:11:52.096Z,92.00
2017-11-03T12:12:51.814Z,98.20
2017-11-03T12:13:51.032Z,97.90
2017-11-03T12:14:51.323Z,101.40
2017-11-03T12:15:50.774Z,102.10
2017-11-03T12:16:51.399Z,98.80
2017-11-03T12:17:52.414Z,94.20
2017-11-03T12:18:50.968Z,94.10
2017-11-03T12:19:51.484Z,93.50
2017-11-03T12:20:50.826Z,95.00
2017-11-03T12:21:51.936Z,95.80
2017-11-03T12:22:51.692Z,91.90
2017-11-03T12:23:51.043Z,89.20
2017-11-03T12:24:51.570Z,93.60
2017-11-03T12:25:50.993Z,94.80
2017-11-03T12:26:51.639Z,96.30
2017-11-03T12:27:51.062Z,89.40
2017-11-03T12:28:51.631Z,87.60
2017-11-03T12:29:51.402Z,89.50
2017-11-03T12:30:50.732Z,89.10
2017-11-03T12:31:51.337Z,91.00
2017-11-03T12:32:50.950Z,86.60
2017-11-03T12:33:51.607Z,88.20
2017-11-03T12:34:50.925Z,89.00
2017-11-03T12:35:51.068Z,85.60
2017-11-03T12:36:51.711Z,87.90
2017-11-03T12:37:51.187Z,84.80
2017-11-03T12:38:50.621Z,84.50
2017-11-03T12:39:51.378Z,87.90
2017-11-03T12:40:51.311Z,85.70
2017-11-03T12:41:51.087Z,85.50
2017-11-03T12:42:51.888Z,84.30
2017-11-03T12:43:51.316Z,85.60
2017-11-03T12:44:50.766Z,79.60
2017-11-03T12:45:51.263Z,80.30
2017-11-03T12:46:51.111Z,77.40
2017-11-03T12:47:51.738Z,78.60
2017-11-03T12:48:51.630Z,80.00
2017-11-03T12:49:50.956Z,79.50
2017-11-03T12:50:51.295Z,79.00
2017-11-03T12:51:50.896Z,78.60